sensor_id;sensor_type;location;lat;lon;timestamp;P1;durP1;ratioP1;P2;durP2;ratioP2
1174;SDS011;576;48.418;10.074;2024-02-23T00:02:29;2.17;;;2.00;;
1174;SDS011;576;48.418;10.074;2024-02-23T00:04:58;2.77;;;1.60;;
1174;SDS011;576;48.418;10.074;2024-02-23T00:07:26;3.10;;;2.00;;
1174;SDS011;576;48.418;10.074;2024-02-23T00:09:54;1.60;;;1.60;;
1174;SDS011;576;48.418;10.074;2024-02-23T00:12:24;1.77;;;1.67;;
1174;SDS011;576;48.418;10.074;2024-02-23T00:14:52;2.30;;;2.10;;
1174;SDS011;576;48.418;10.074;2024-02-23T00:17:20;1.80;;;1.70;;
1174;SDS011;576;48.418;10.074;2024-02-23T00:19:49;1.70;;;1.60;;
1174;SDS011;576;48.418;10.074;2024-02-23T00:22:19;2.03;;;1.93;;
1174;SDS011;576;48.418;10.074;2024-02-23T00:24:47;1.80;;;1.70;;
1174;SDS011;576;48.418;10.074;2024-02-23T00:27:15;1.60;;;1.50;;
1174;SDS011;576;48.418;10.074;2024-02-23T00:29:45;1.97;;;1.87;;
1174;SDS011;576;48.418;10.074;2024-02-23T00:32:13;1.60;;;1.50;;
1174;SDS011;576;48.418;10.074;2024-02-23T00:34:42;2.30;;;1.50;;
1174;SDS011;576;48.418;10.074;2024-02-23T00:37:11;1.43;;;1.33;;
1174;SDS011;576;48.418;10.074;2024-02-23T00:39:39;2.00;;;1.80;;
1174;SDS011;576;48.418;10.074;2024-02-23T00:42:07;2.03;;;1.93;;
1174;SDS011;576;48.418;10.074;2024-02-23T00:44:35;1.93;;;1.27;;
1174;SDS011;576;48.418;10.074;2024-02-23T00:47:05;1.47;;;1.33;;
1174;SDS011;576;48.418;10.074;2024-02-23T00:49:34;1.43;;;1.33;;
1174;SDS011;576;48.418;10.074;2024-02-23T00:52:02;1.53;;;1.43;;
1174;SDS011;576;48.418;10.074;2024-02-23T00:54:30;1.67;;;1.27;;
1174;SDS011;576;48.418;10.074;2024-02-23T00:56:58;1.30;;;0.93;;
1174;SDS011;576;48.418;10.074;2024-02-23T00:59:27;1.80;;;1.70;;
1174;SDS011;576;48.418;10.074;2024-02-23T01:01:55;1.00;;;1.00;;
1174;SDS011;576;48.418;10.074;2024-02-23T01:04:25;2.90;;;1.33;;
1174;SDS011;576;48.418;10.074;2024-02-23T01:06:53;0.90;;;0.90;;
1174;SDS011;576;48.418;10.074;2024-02-23T01:09:21;1.33;;;1.23;;
1174;SDS011;576;48.418;10.074;2024-02-23T01:11:49;1.07;;;1.03;;
1174;SDS011;576;48.418;10.074;2024-02-23T01:14:18;0.90;;;0.90;;
1174;SDS011;576;48.418;10.074;2024-02-23T01:16:46;1.50;;;1.00;;
1174;SDS011;576;48.418;10.074;2024-02-23T01:19:14;1.00;;;1.00;;
1174;SDS011;576;48.418;10.074;2024-02-23T01:21:44;0.73;;;0.73;;
1174;SDS011;576;48.418;10.074;2024-02-23T01:24:12;1.00;;;1.00;;
1174;SDS011;576;48.418;10.074;2024-02-23T01:26:41;0.90;;;0.90;;
1174;SDS011;576;48.418;10.074;2024-02-23T01:29:09;1.03;;;0.93;;
1174;SDS011;576;48.418;10.074;2024-02-23T01:31:37;1.17;;;1.07;;
1174;SDS011;576;48.418;10.074;2024-02-23T01:34:05;1.10;;;1.00;;
1174;SDS011;576;48.418;10.074;2024-02-23T01:36:34;0.93;;;0.90;;
1174;SDS011;576;48.418;10.074;2024-02-23T01:39:04;0.80;;;0.80;;
1174;SDS011;576;48.418;10.074;2024-02-23T01:41:33;1.13;;;1.00;;
1174;SDS011;576;48.418;10.074;2024-02-23T01:44:01;0.73;;;0.73;;
1174;SDS011;576;48.418;10.074;2024-02-23T01:46:30;0.80;;;0.80;;
1174;SDS011;576;48.418;10.074;2024-02-23T01:48:58;0.70;;;0.70;;
1174;SDS011;576;48.418;10.074;2024-02-23T01:51:27;0.73;;;0.73;;
1174;SDS011;576;48.418;10.074;2024-02-23T01:53:55;0.90;;;0.73;;
1174;SDS011;576;48.418;10.074;2024-02-23T01:56:25;0.80;;;0.80;;
1174;SDS011;576;48.418;10.074;2024-02-23T01:58:53;1.40;;;0.90;;
1174;SDS011;576;48.418;10.074;2024-02-23T02:01:23;1.40;;;0.83;;
1174;SDS011;576;48.418;10.074;2024-02-23T02:03:51;0.80;;;0.70;;
1174;SDS011;576;48.418;10.074;2024-02-23T02:06:20;0.63;;;0.63;;
1174;SDS011;576;48.418;10.074;2024-02-23T02:08:48;0.47;;;0.47;;
1174;SDS011;576;48.418;10.074;2024-02-23T02:11:16;0.60;;;0.60;;
1174;SDS011;576;48.418;10.074;2024-02-23T02:13:46;1.07;;;0.70;;
1174;SDS011;576;48.418;10.074;2024-02-23T02:16:14;0.73;;;0.70;;
1174;SDS011;576;48.418;10.074;2024-02-23T02:18:43;0.73;;;0.73;;
1174;SDS011;576;48.418;10.074;2024-02-23T02:21:12;0.60;;;0.60;;
1174;SDS011;576;48.418;10.074;2024-02-23T02:23:40;1.13;;;0.80;;
1174;SDS011;576;48.418;10.074;2024-02-23T02:26:09;0.97;;;0.83;;
1174;SDS011;576;48.418;10.074;2024-02-23T02:28:37;0.70;;;0.70;;
1174;SDS011;576;48.418;10.074;2024-02-23T02:31:07;0.67;;;0.67;;
1174;SDS011;576;48.418;10.074;2024-02-23T02:33:35;1.20;;;1.17;;
1174;SDS011;576;48.418;10.074;2024-02-23T02:36:04;0.70;;;0.70;;
1174;SDS011;576;48.418;10.074;2024-02-23T02:38:32;0.70;;;0.70;;
1174;SDS011;576;48.418;10.074;2024-02-23T02:41:01;0.70;;;0.70;;
1174;SDS011;576;48.418;10.074;2024-02-23T02:43:29;0.57;;;0.57;;
1174;SDS011;576;48.418;10.074;2024-02-23T02:45:58;2.50;;;1.33;;
1174;SDS011;576;48.418;10.074;2024-02-23T02:48:27;0.60;;;0.60;;
1174;SDS011;576;48.418;10.074;2024-02-23T02:50:56;1.00;;;0.80;;
1174;SDS011;576;48.418;10.074;2024-02-23T02:53:24;0.40;;;0.40;;
1174;SDS011;576;48.418;10.074;2024-02-23T02:55:52;0.67;;;0.67;;
1174;SDS011;576;48.418;10.074;2024-02-23T02:58:21;1.30;;;0.53;;
1174;SDS011;576;48.418;10.074;2024-02-23T03:00:49;0.40;;;0.40;;
1174;SDS011;576;48.418;10.074;2024-02-23T03:03:17;0.60;;;0.60;;
1174;SDS011;576;48.418;10.074;2024-02-23T03:05:46;0.50;;;0.50;;
1174;SDS011;576;48.418;10.074;2024-02-23T03:08:15;0.47;;;0.47;;
1174;SDS011;576;48.418;10.074;2024-02-23T03:10:43;0.70;;;0.70;;
1174;SDS011;576;48.418;10.074;2024-02-23T03:13:11;0.50;;;0.50;;
1174;SDS011;576;48.418;10.074;2024-02-23T03:15:40;0.60;;;0.50;;
1174;SDS011;576;48.418;10.074;2024-02-23T03:18:08;0.60;;;0.60;;
1174;SDS011;576;48.418;10.074;2024-02-23T03:20:37;0.60;;;0.60;;
1174;SDS011;576;48.418;10.074;2024-02-23T03:23:06;0.40;;;0.40;;
1174;SDS011;576;48.418;10.074;2024-02-23T03:25:35;0.40;;;0.40;;
1174;SDS011;576;48.418;10.074;2024-02-23T03:28:03;0.57;;;0.57;;
1174;SDS011;576;48.418;10.074;2024-02-23T03:30:32;1.33;;;0.53;;
1174;SDS011;576;48.418;10.074;2024-02-23T03:33:03;0.50;;;0.50;;
1174;SDS011;576;48.418;10.074;2024-02-23T03:35:31;0.33;;;0.33;;
1174;SDS011;576;48.418;10.074;2024-02-23T03:38:00;0.40;;;0.40;;
1174;SDS011;576;48.418;10.074;2024-02-23T03:40:30;0.50;;;0.43;;
1174;SDS011;576;48.418;10.074;2024-02-23T03:42:58;0.50;;;0.50;;
1174;SDS011;576;48.418;10.074;2024-02-23T03:45:27;0.50;;;0.40;;
1174;SDS011;576;48.418;10.074;2024-02-23T03:47:55;0.40;;;0.40;;
1174;SDS011;576;48.418;10.074;2024-02-23T03:50:23;0.50;;;0.40;;
1174;SDS011;576;48.418;10.074;2024-02-23T03:52:52;0.50;;;0.50;;
1174;SDS011;576;48.418;10.074;2024-02-23T03:55:20;0.57;;;0.57;;
1174;SDS011;576;48.418;10.074;2024-02-23T03:57:50;0.70;;;0.50;;
1174;SDS011;576;48.418;10.074;2024-02-23T04:00:18;0.50;;;0.40;;
1174;SDS011;576;48.418;10.074;2024-02-23T04:02:49;0.50;;;0.40;;
1174;SDS011;576;48.418;10.074;2024-02-23T04:05:22;0.50;;;0.50;;
1174;SDS011;576;48.418;10.074;2024-02-23T04:07:51;3.90;;;0.90;;
1174;SDS011;576;48.418;10.074;2024-02-23T04:10:19;0.47;;;0.40;;
1174;SDS011;576;48.418;10.074;2024-02-23T04:12:47;0.40;;;0.40;;
1174;SDS011;576;48.418;10.074;2024-02-23T04:15:17;0.50;;;0.50;;
1174;SDS011;576;48.418;10.074;2024-02-23T04:17:45;0.67;;;0.50;;
1174;SDS011;576;48.418;10.074;2024-02-23T04:20:13;0.40;;;0.40;;
1174;SDS011;576;48.418;10.074;2024-02-23T04:22:42;0.47;;;0.43;;
1174;SDS011;576;48.418;10.074;2024-02-23T04:25:10;0.40;;;0.40;;
1174;SDS011;576;48.418;10.074;2024-02-23T04:27:38;0.30;;;0.30;;
1174;SDS011;576;48.418;10.074;2024-02-23T04:30:09;0.40;;;0.40;;
1174;SDS011;576;48.418;10.074;2024-02-23T04:32:38;0.50;;;0.40;;
1174;SDS011;576;48.418;10.074;2024-02-23T04:35:07;0.50;;;0.40;;
1174;SDS011;576;48.418;10.074;2024-02-23T04:37:35;1.27;;;0.60;;
1174;SDS011;576;48.418;10.074;2024-02-23T04:40:04;0.50;;;0.30;;
1174;SDS011;576;48.418;10.074;2024-02-23T04:42:33;0.77;;;0.40;;
1174;SDS011;576;48.418;10.074;2024-02-23T04:45:01;0.40;;;0.40;;
1174;SDS011;576;48.418;10.074;2024-02-23T04:47:31;0.30;;;0.30;;
1174;SDS011;576;48.418;10.074;2024-02-23T04:50:00;0.30;;;0.30;;
1174;SDS011;576;48.418;10.074;2024-02-23T04:52:29;0.70;;;0.40;;
1174;SDS011;576;48.418;10.074;2024-02-23T04:54:58;0.60;;;0.60;;
1174;SDS011;576;48.418;10.074;2024-02-23T04:57:26;0.50;;;0.50;;
1174;SDS011;576;48.418;10.074;2024-02-23T04:59:54;0.50;;;0.40;;
1174;SDS011;576;48.418;10.074;2024-02-23T05:02:22;0.40;;;0.40;;
1174;SDS011;576;48.418;10.074;2024-02-23T05:04:52;0.40;;;0.37;;
1174;SDS011;576;48.418;10.074;2024-02-23T05:07:20;0.40;;;0.40;;
1174;SDS011;576;48.418;10.074;2024-02-23T05:09:48;0.60;;;0.30;;
1174;SDS011;576;48.418;10.074;2024-02-23T05:12:17;0.30;;;0.30;;
1174;SDS011;576;48.418;10.074;2024-02-23T05:14:45;0.40;;;0.40;;
1174;SDS011;576;48.418;10.074;2024-02-23T05:17:13;0.30;;;0.30;;
1174;SDS011;576;48.418;10.074;2024-02-23T05:19:41;0.77;;;0.30;;
1174;SDS011;576;48.418;10.074;2024-02-23T05:22:11;0.30;;;0.30;;
1174;SDS011;576;48.418;10.074;2024-02-23T05:24:39;0.30;;;0.30;;
1174;SDS011;576;48.418;10.074;2024-02-23T05:27:08;0.67;;;0.63;;
1174;SDS011;576;48.418;10.074;2024-02-23T05:29:36;0.40;;;0.30;;
1174;SDS011;576;48.418;10.074;2024-02-23T05:32:04;0.90;;;0.50;;
1174;SDS011;576;48.418;10.074;2024-02-23T05:34:33;0.37;;;0.37;;
1174;SDS011;576;48.418;10.074;2024-02-23T05:37:02;0.50;;;0.40;;
1174;SDS011;576;48.418;10.074;2024-02-23T05:39:31;0.40;;;0.40;;
1174;SDS011;576;48.418;10.074;2024-02-23T05:42:00;0.40;;;0.40;;
1174;SDS011;576;48.418;10.074;2024-02-23T05:44:28;0.40;;;0.40;;
1174;SDS011;576;48.418;10.074;2024-02-23T05:46:56;0.70;;;0.50;;
1174;SDS011;576;48.418;10.074;2024-02-23T05:49:24;0.60;;;0.60;;
1174;SDS011;576;48.418;10.074;2024-02-23T05:51:53;1.07;;;0.53;;
1174;SDS011;576;48.418;10.074;2024-02-23T05:54:21;1.03;;;0.60;;
1174;SDS011;576;48.418;10.074;2024-02-23T05:56:51;0.87;;;0.57;;
1174;SDS011;576;48.418;10.074;2024-02-23T05:59:19;0.50;;;0.50;;
1174;SDS011;576;48.418;10.074;2024-02-23T06:01:47;0.80;;;0.40;;
1174;SDS011;576;48.418;10.074;2024-02-23T06:04:15;0.70;;;0.50;;
1174;SDS011;576;48.418;10.074;2024-02-23T06:06:44;0.57;;;0.57;;
1174;SDS011;576;48.418;10.074;2024-02-23T06:09:12;1.03;;;0.40;;
1174;SDS011;576;48.418;10.074;2024-02-23T06:11:42;1.17;;;0.60;;
1174;SDS011;576;48.418;10.074;2024-02-23T06:14:11;0.40;;;0.40;;
1174;SDS011;576;48.418;10.074;2024-02-23T06:16:40;1.27;;;0.40;;
1174;SDS011;576;48.418;10.074;2024-02-23T06:19:08;0.60;;;0.60;;
1174;SDS011;576;48.418;10.074;2024-02-23T06:21:36;0.60;;;0.50;;
1174;SDS011;576;48.418;10.074;2024-02-23T06:24:05;3.60;;;0.50;;
1174;SDS011;576;48.418;10.074;2024-02-23T06:26:34;0.70;;;0.50;;
1174;SDS011;576;48.418;10.074;2024-02-23T06:29:03;0.60;;;0.60;;
1174;SDS011;576;48.418;10.074;2024-02-23T06:31:33;1.23;;;0.40;;
1174;SDS011;576;48.418;10.074;2024-02-23T06:34:02;0.87;;;0.87;;
1174;SDS011;576;48.418;10.074;2024-02-23T06:36:30;0.60;;;0.47;;
1174;SDS011;576;48.418;10.074;2024-02-23T06:38:59;1.80;;;1.10;;
1174;SDS011;576;48.418;10.074;2024-02-23T06:41:27;1.47;;;0.40;;
1174;SDS011;576;48.418;10.074;2024-02-23T06:43:55;0.57;;;0.50;;
1174;SDS011;576;48.418;10.074;2024-02-23T06:46:23;0.70;;;0.50;;
1174;SDS011;576;48.418;10.074;2024-02-23T06:48:53;1.37;;;0.80;;
1174;SDS011;576;48.418;10.074;2024-02-23T06:51:22;0.70;;;0.60;;
1174;SDS011;576;48.418;10.074;2024-02-23T06:53:50;0.70;;;0.50;;
1174;SDS011;576;48.418;10.074;2024-02-23T06:56:18;1.67;;;0.60;;
1174;SDS011;576;48.418;10.074;2024-02-23T06:58:47;0.53;;;0.53;;
1174;SDS011;576;48.418;10.074;2024-02-23T07:01:15;1.07;;;0.70;;
1174;SDS011;576;48.418;10.074;2024-02-23T07:03:43;0.87;;;0.73;;
1174;SDS011;576;48.418;10.074;2024-02-23T07:06:13;2.60;;;0.60;;
1174;SDS011;576;48.418;10.074;2024-02-23T07:08:45;0.80;;;0.70;;
1174;SDS011;576;48.418;10.074;2024-02-23T07:11:13;2.00;;;0.83;;
1174;SDS011;576;48.418;10.074;2024-02-23T07:13:42;1.43;;;0.90;;
1174;SDS011;576;48.418;10.074;2024-02-23T07:16:11;2.37;;;1.17;;
1174;SDS011;576;48.418;10.074;2024-02-23T07:18:40;5.47;;;1.80;;
1174;SDS011;576;48.418;10.074;2024-02-23T07:21:08;3.67;;;1.03;;
1174;SDS011;576;48.418;10.074;2024-02-23T07:23:38;5.53;;;2.10;;
1174;SDS011;576;48.418;10.074;2024-02-23T07:26:06;3.20;;;1.57;;
1174;SDS011;576;48.418;10.074;2024-02-23T07:28:34;4.53;;;1.40;;
1174;SDS011;576;48.418;10.074;2024-02-23T07:31:03;5.30;;;2.17;;
1174;SDS011;576;48.418;10.074;2024-02-23T07:33:31;3.00;;;1.43;;
1174;SDS011;576;48.418;10.074;2024-02-23T07:35:59;7.90;;;1.97;;
1174;SDS011;576;48.418;10.074;2024-02-23T07:38:28;2.90;;;1.60;;
1174;SDS011;576;48.418;10.074;2024-02-23T07:40:58;2.47;;;1.67;;
1174;SDS011;576;48.418;10.074;2024-02-23T07:43:26;4.70;;;1.57;;
1174;SDS011;576;48.418;10.074;2024-02-23T07:45:55;2.70;;;1.30;;
1174;SDS011;576;48.418;10.074;2024-02-23T07:48:24;5.67;;;1.70;;
1174;SDS011;576;48.418;10.074;2024-02-23T07:50:52;5.60;;;1.77;;
1174;SDS011;576;48.418;10.074;2024-02-23T07:53:21;6.53;;;1.70;;
1174;SDS011;576;48.418;10.074;2024-02-23T07:55:49;8.17;;;2.20;;
1174;SDS011;576;48.418;10.074;2024-02-23T07:58:19;8.17;;;2.53;;
1174;SDS011;576;48.418;10.074;2024-02-23T08:00:47;7.47;;;2.07;;
1174;SDS011;576;48.418;10.074;2024-02-23T08:03:16;7.37;;;1.90;;
1174;SDS011;576;48.418;10.074;2024-02-23T08:05:44;5.37;;;2.10;;
1174;SDS011;576;48.418;10.074;2024-02-23T08:08:12;2.73;;;1.47;;
1174;SDS011;576;48.418;10.074;2024-02-23T08:10:41;5.53;;;2.07;;
1174;SDS011;576;48.418;10.074;2024-02-23T08:13:09;4.63;;;2.20;;
1174;SDS011;576;48.418;10.074;2024-02-23T08:15:39;3.60;;;1.90;;
1174;SDS011;576;48.418;10.074;2024-02-23T08:18:07;9.47;;;2.10;;
1174;SDS011;576;48.418;10.074;2024-02-23T08:20:36;3.53;;;1.60;;
1174;SDS011;576;48.418;10.074;2024-02-23T08:23:05;6.63;;;2.50;;
1174;SDS011;576;48.418;10.074;2024-02-23T08:25:33;6.60;;;1.90;;
1174;SDS011;576;48.418;10.074;2024-02-23T08:28:01;4.27;;;1.70;;
1174;SDS011;576;48.418;10.074;2024-02-23T08:30:30;8.37;;;3.40;;
1174;SDS011;576;48.418;10.074;2024-02-23T08:32:59;6.03;;;2.03;;
1174;SDS011;576;48.418;10.074;2024-02-23T08:35:28;2.67;;;1.53;;
1174;SDS011;576;48.418;10.074;2024-02-23T08:37:56;2.47;;;1.30;;
1174;SDS011;576;48.418;10.074;2024-02-23T08:40:24;2.37;;;1.40;;
1174;SDS011;576;48.418;10.074;2024-02-23T08:42:53;1.60;;;1.33;;
1174;SDS011;576;48.418;10.074;2024-02-23T08:45:21;1.50;;;0.90;;
1174;SDS011;576;48.418;10.074;2024-02-23T08:47:49;2.30;;;1.17;;
1174;SDS011;576;48.418;10.074;2024-02-23T08:50:19;2.10;;;1.30;;
1174;SDS011;576;48.418;10.074;2024-02-23T08:52:47;1.20;;;1.10;;
1174;SDS011;576;48.418;10.074;2024-02-23T08:55:15;3.07;;;1.33;;
1174;SDS011;576;48.418;10.074;2024-02-23T08:57:44;5.57;;;1.20;;
1174;SDS011;576;48.418;10.074;2024-02-23T09:00:12;2.67;;;1.30;;
1174;SDS011;576;48.418;10.074;2024-02-23T09:02:44;4.37;;;1.30;;
1174;SDS011;576;48.418;10.074;2024-02-23T09:05:12;3.00;;;1.10;;
1174;SDS011;576;48.418;10.074;2024-02-23T09:07:43;1.63;;;1.00;;
1174;SDS011;576;48.418;10.074;2024-02-23T09:10:12;2.20;;;1.03;;
1174;SDS011;576;48.418;10.074;2024-02-23T09:12:40;2.90;;;1.67;;
1174;SDS011;576;48.418;10.074;2024-02-23T09:15:09;2.23;;;1.70;;
1174;SDS011;576;48.418;10.074;2024-02-23T09:17:37;1.43;;;0.60;;
1174;SDS011;576;48.418;10.074;2024-02-23T09:20:08;1.97;;;0.90;;
1174;SDS011;576;48.418;10.074;2024-02-23T09:22:38;1.57;;;1.17;;
1174;SDS011;576;48.418;10.074;2024-02-23T09:25:08;2.07;;;1.10;;
1174;SDS011;576;48.418;10.074;2024-02-23T09:27:36;2.33;;;1.37;;
1174;SDS011;576;48.418;10.074;2024-02-23T09:30:10;1.57;;;0.90;;
1174;SDS011;576;48.418;10.074;2024-02-23T09:32:41;1.37;;;0.80;;
1174;SDS011;576;48.418;10.074;2024-02-23T09:35:10;0.80;;;0.73;;
1174;SDS011;576;48.418;10.074;2024-02-23T09:37:39;3.40;;;1.00;;
1174;SDS011;576;48.418;10.074;2024-02-23T09:40:09;2.70;;;1.00;;
1174;SDS011;576;48.418;10.074;2024-02-23T09:42:38;1.10;;;0.90;;
1174;SDS011;576;48.418;10.074;2024-02-23T09:45:07;1.27;;;0.93;;
1174;SDS011;576;48.418;10.074;2024-02-23T09:47:38;1.77;;;1.60;;
1174;SDS011;576;48.418;10.074;2024-02-23T09:50:08;3.80;;;0.87;;
1174;SDS011;576;48.418;10.074;2024-02-23T09:52:38;1.40;;;0.90;;
1174;SDS011;576;48.418;10.074;2024-02-23T09:55:06;1.30;;;0.80;;
1174;SDS011;576;48.418;10.074;2024-02-23T09:57:36;0.80;;;0.70;;
1174;SDS011;576;48.418;10.074;2024-02-23T10:00:06;1.97;;;1.10;;
1174;SDS011;576;48.418;10.074;2024-02-23T10:02:39;0.70;;;0.60;;
1174;SDS011;576;48.418;10.074;2024-02-23T10:05:08;2.23;;;0.90;;
1174;SDS011;576;48.418;10.074;2024-02-23T10:07:38;1.13;;;0.80;;
1174;SDS011;576;48.418;10.074;2024-02-23T10:10:08;1.80;;;0.80;;
1174;SDS011;576;48.418;10.074;2024-02-23T10:12:37;1.00;;;0.77;;
1174;SDS011;576;48.418;10.074;2024-02-23T10:15:06;1.93;;;0.83;;
1174;SDS011;576;48.418;10.074;2024-02-23T10:17:35;0.83;;;0.73;;
1174;SDS011;576;48.418;10.074;2024-02-23T10:20:04;1.90;;;1.00;;
1174;SDS011;576;48.418;10.074;2024-02-23T10:22:33;0.83;;;0.83;;
1174;SDS011;576;48.418;10.074;2024-02-23T10:25:02;2.10;;;1.07;;
1174;SDS011;576;48.418;10.074;2024-02-23T10:27:32;2.13;;;0.80;;
1174;SDS011;576;48.418;10.074;2024-02-23T10:30:01;1.80;;;0.90;;
1174;SDS011;576;48.418;10.074;2024-02-23T10:32:29;2.30;;;1.10;;
1174;SDS011;576;48.418;10.074;2024-02-23T10:34:59;1.17;;;0.87;;
1174;SDS011;576;48.418;10.074;2024-02-23T10:37:30;1.40;;;0.90;;
1174;SDS011;576;48.418;10.074;2024-02-23T10:40:00;1.10;;;0.90;;
1174;SDS011;576;48.418;10.074;2024-02-23T10:42:31;2.73;;;0.90;;
1174;SDS011;576;48.418;10.074;2024-02-23T10:45:04;1.40;;;0.80;;
1174;SDS011;576;48.418;10.074;2024-02-23T10:47:34;1.90;;;0.93;;
1174;SDS011;576;48.418;10.074;2024-02-23T10:50:04;1.37;;;1.20;;
1174;SDS011;576;48.418;10.074;2024-02-23T10:52:34;2.10;;;0.97;;
1174;SDS011;576;48.418;10.074;2024-02-23T10:55:03;0.83;;;0.60;;
1174;SDS011;576;48.418;10.074;2024-02-23T10:57:35;1.53;;;0.73;;
1174;SDS011;576;48.418;10.074;2024-02-23T11:00:04;0.97;;;0.87;;
1174;SDS011;576;48.418;10.074;2024-02-23T11:02:38;3.40;;;0.70;;
1174;SDS011;576;48.418;10.074;2024-02-23T11:05:08;0.97;;;0.70;;
1174;SDS011;576;48.418;10.074;2024-02-23T11:07:39;1.83;;;0.77;;
1174;SDS011;576;48.418;10.074;2024-02-23T11:10:08;3.13;;;1.13;;
1174;SDS011;576;48.418;10.074;2024-02-23T11:12:41;0.93;;;0.77;;
1174;SDS011;576;48.418;10.074;2024-02-23T11:15:18;1.83;;;1.07;;
1174;SDS011;576;48.418;10.074;2024-02-23T11:17:53;1.60;;;0.80;;
1174;SDS011;576;48.418;10.074;2024-02-23T11:20:23;0.97;;;0.53;;
1174;SDS011;576;48.418;10.074;2024-02-23T11:22:56;0.83;;;0.83;;
1174;SDS011;576;48.418;10.074;2024-02-23T11:25:26;0.60;;;0.60;;
1174;SDS011;576;48.418;10.074;2024-02-23T11:27:56;1.13;;;1.03;;
1174;SDS011;576;48.418;10.074;2024-02-23T11:30:25;0.83;;;0.80;;
1174;SDS011;576;48.418;10.074;2024-02-23T11:32:57;1.33;;;0.80;;
1174;SDS011;576;48.418;10.074;2024-02-23T11:35:27;1.50;;;0.90;;
1174;SDS011;576;48.418;10.074;2024-02-23T11:37:55;1.00;;;0.83;;
1174;SDS011;576;48.418;10.074;2024-02-23T11:40:26;1.53;;;0.70;;
1174;SDS011;576;48.418;10.074;2024-02-23T11:42:55;1.50;;;0.60;;
1174;SDS011;576;48.418;10.074;2024-02-23T11:45:27;4.93;;;1.00;;
1174;SDS011;576;48.418;10.074;2024-02-23T11:47:57;1.30;;;0.87;;
1174;SDS011;576;48.418;10.074;2024-02-23T11:50:26;1.23;;;0.60;;
1174;SDS011;576;48.418;10.074;2024-02-23T11:52:54;1.53;;;0.67;;
1174;SDS011;576;48.418;10.074;2024-02-23T11:55:23;1.03;;;0.93;;
1174;SDS011;576;48.418;10.074;2024-02-23T11:57:51;1.10;;;0.70;;
1174;SDS011;576;48.418;10.074;2024-02-23T12:00:34;1.07;;;0.80;;
1174;SDS011;576;48.418;10.074;2024-02-23T12:03:03;1.40;;;0.80;;
1174;SDS011;576;48.418;10.074;2024-02-23T12:05:32;3.17;;;0.90;;
1174;SDS011;576;48.418;10.074;2024-02-23T12:08:01;0.80;;;0.67;;
1174;SDS011;576;48.418;10.074;2024-02-23T12:10:29;1.17;;;0.57;;
1174;SDS011;576;48.418;10.074;2024-02-23T12:12:58;1.47;;;0.83;;
1174;SDS011;576;48.418;10.074;2024-02-23T12:15:26;1.73;;;1.40;;
1174;SDS011;576;48.418;10.074;2024-02-23T12:17:58;0.70;;;0.57;;
1174;SDS011;576;48.418;10.074;2024-02-23T12:20:27;1.13;;;1.00;;
1174;SDS011;576;48.418;10.074;2024-02-23T12:22:57;0.70;;;0.70;;
1174;SDS011;576;48.418;10.074;2024-02-23T12:25:25;1.30;;;0.80;;
1174;SDS011;576;48.418;10.074;2024-02-23T12:27:54;1.23;;;1.23;;
1174;SDS011;576;48.418;10.074;2024-02-23T12:30:23;0.53;;;0.53;;
1174;SDS011;576;48.418;10.074;2024-02-23T12:33:03;0.90;;;0.90;;
1174;SDS011;576;48.418;10.074;2024-02-23T12:35:33;1.47;;;0.80;;
1174;SDS011;576;48.418;10.074;2024-02-23T12:38:02;1.77;;;1.00;;
1174;SDS011;576;48.418;10.074;2024-02-23T12:40:31;0.90;;;0.80;;
1174;SDS011;576;48.418;10.074;2024-02-23T12:42:59;0.80;;;0.73;;
1174;SDS011;576;48.418;10.074;2024-02-23T12:45:27;1.77;;;0.90;;
1174;SDS011;576;48.418;10.074;2024-02-23T12:47:56;0.70;;;0.63;;
1174;SDS011;576;48.418;10.074;2024-02-23T12:50:25;2.43;;;1.10;;
1174;SDS011;576;48.418;10.074;2024-02-23T12:52:58;2.57;;;1.67;;
1174;SDS011;576;48.418;10.074;2024-02-23T12:55:27;1.23;;;0.80;;
1174;SDS011;576;48.418;10.074;2024-02-23T12:57:55;2.13;;;1.57;;
1174;SDS011;576;48.418;10.074;2024-02-23T13:00:23;2.70;;;1.40;;
1174;SDS011;576;48.418;10.074;2024-02-23T13:02:51;3.10;;;2.00;;
1174;SDS011;576;48.418;10.074;2024-02-23T13:05:20;4.77;;;2.70;;
1174;SDS011;576;48.418;10.074;2024-02-23T13:07:50;3.00;;;1.70;;
1174;SDS011;576;48.418;10.074;2024-02-23T13:10:18;2.40;;;2.10;;
1174;SDS011;576;48.418;10.074;2024-02-23T13:12:46;2.83;;;1.90;;
1174;SDS011;576;48.418;10.074;2024-02-23T13:15:16;2.17;;;1.50;;
1174;SDS011;576;48.418;10.074;2024-02-23T13:17:47;3.50;;;1.93;;
1174;SDS011;576;48.418;10.074;2024-02-23T13:20:16;4.87;;;1.80;;
1174;SDS011;576;48.418;10.074;2024-02-23T13:22:47;5.83;;;2.77;;
1174;SDS011;576;48.418;10.074;2024-02-23T13:25:17;4.63;;;2.53;;
1174;SDS011;576;48.418;10.074;2024-02-23T13:27:45;7.70;;;2.33;;
1174;SDS011;576;48.418;10.074;2024-02-23T13:30:14;9.20;;;2.37;;
1174;SDS011;576;48.418;10.074;2024-02-23T13:32:42;6.00;;;2.40;;
1174;SDS011;576;48.418;10.074;2024-02-23T13:35:11;4.53;;;2.50;;
1174;SDS011;576;48.418;10.074;2024-02-23T13:37:40;3.47;;;2.30;;
1174;SDS011;576;48.418;10.074;2024-02-23T13:40:09;4.40;;;2.60;;
1174;SDS011;576;48.418;10.074;2024-02-23T13:42:39;4.67;;;2.83;;
1174;SDS011;576;48.418;10.074;2024-02-23T13:45:08;5.80;;;2.60;;
1174;SDS011;576;48.418;10.074;2024-02-23T13:47:40;9.73;;;2.80;;
1174;SDS011;576;48.418;10.074;2024-02-23T13:50:09;3.77;;;2.50;;
1174;SDS011;576;48.418;10.074;2024-02-23T13:52:38;5.43;;;3.30;;
1174;SDS011;576;48.418;10.074;2024-02-23T13:55:07;5.80;;;2.20;;
1174;SDS011;576;48.418;10.074;2024-02-23T13:57:35;3.87;;;2.00;;
1174;SDS011;576;48.418;10.074;2024-02-23T14:00:06;5.80;;;3.00;;
1174;SDS011;576;48.418;10.074;2024-02-23T14:02:39;3.80;;;2.33;;
1174;SDS011;576;48.418;10.074;2024-02-23T14:05:08;8.90;;;3.27;;
1174;SDS011;576;48.418;10.074;2024-02-23T14:07:36;5.07;;;2.20;;
1174;SDS011;576;48.418;10.074;2024-02-23T14:10:05;2.53;;;1.80;;
1174;SDS011;576;48.418;10.074;2024-02-23T14:12:34;2.60;;;2.13;;
1174;SDS011;576;48.418;10.074;2024-02-23T14:15:03;4.83;;;1.83;;
1174;SDS011;576;48.418;10.074;2024-02-23T14:17:33;5.13;;;1.80;;
1174;SDS011;576;48.418;10.074;2024-02-23T14:20:02;4.93;;;2.20;;
1174;SDS011;576;48.418;10.074;2024-02-23T14:22:31;7.23;;;2.50;;
1174;SDS011;576;48.418;10.074;2024-02-23T14:24:59;3.70;;;2.10;;
1174;SDS011;576;48.418;10.074;2024-02-23T14:27:28;3.23;;;1.80;;
1174;SDS011;576;48.418;10.074;2024-02-23T14:29:57;3.90;;;1.90;;
1174;SDS011;576;48.418;10.074;2024-02-23T14:32:26;3.23;;;1.73;;
1174;SDS011;576;48.418;10.074;2024-02-23T14:34:56;4.73;;;2.50;;
1174;SDS011;576;48.418;10.074;2024-02-23T14:37:24;1.60;;;1.50;;
1174;SDS011;576;48.418;10.074;2024-02-23T14:39:52;3.77;;;1.73;;
1174;SDS011;576;48.418;10.074;2024-02-23T14:42:21;3.80;;;2.10;;
1174;SDS011;576;48.418;10.074;2024-02-23T14:44:49;3.20;;;1.90;;
1174;SDS011;576;48.418;10.074;2024-02-23T14:47:17;5.50;;;2.53;;
1174;SDS011;576;48.418;10.074;2024-02-23T14:49:58;2.97;;;1.67;;
1174;SDS011;576;48.418;10.074;2024-02-23T14:52:27;2.63;;;1.87;;
1174;SDS011;576;48.418;10.074;2024-02-23T14:54:55;3.03;;;1.20;;
1174;SDS011;576;48.418;10.074;2024-02-23T14:57:24;5.90;;;2.23;;
1174;SDS011;576;48.418;10.074;2024-02-23T14:59:52;2.90;;;1.67;;
1174;SDS011;576;48.418;10.074;2024-02-23T15:02:20;5.23;;;2.20;;
1174;SDS011;576;48.418;10.074;2024-02-23T15:04:49;3.10;;;1.70;;
1174;SDS011;576;48.418;10.074;2024-02-23T15:07:19;4.20;;;1.53;;
1174;SDS011;576;48.418;10.074;2024-02-23T15:09:48;3.47;;;2.00;;
1174;SDS011;576;48.418;10.074;2024-02-23T15:12:16;1.97;;;1.43;;
1174;SDS011;576;48.418;10.074;2024-02-23T15:14:45;1.23;;;1.13;;
1174;SDS011;576;48.418;10.074;2024-02-23T15:17:13;2.30;;;1.60;;
1174;SDS011;576;48.418;10.074;2024-02-23T15:19:41;2.33;;;1.17;;
1174;SDS011;576;48.418;10.074;2024-02-23T15:22:10;4.80;;;1.90;;
1174;SDS011;576;48.418;10.074;2024-02-23T15:24:42;4.53;;;1.97;;
1174;SDS011;576;48.418;10.074;2024-02-23T15:27:12;3.60;;;1.90;;